createdAt,value
2018-03-04T00:02:11.831Z,84.70
2018-03-04T00:04:38.431Z,91.77
2018-03-04T00:07:05.032Z,87.23
2018-03-04T00:09:31.628Z,88.80
2018-03-04T00:11:58.229Z,89.47
2018-03-04T00:14:24.855Z,97.70
2018-03-04T00:16:51.465Z,95.70
2018-03-04T00:19:18.064Z,87.77
2018-03-04T00:21:44.667Z,89.67
2018-03-04T00:24:11.268Z,95.30
2018-03-04T00:26:37.881Z,87.90
2018-03-04T00:29:04.483Z,90.60
2018-03-04T00:31:31.083Z,94.17
2018-03-04T00:33:57.718Z,93.13
2018-03-04T00:36:24.327Z,101.10
2018-03-04T00:38:50.931Z,95.77
2018-03-04T00:41:17.597Z,91.37
2018-03-04T00:43:44.203Z,102.50
2018-03-04T00:46:10.804Z,100.83
2018-03-04T00:48:37.411Z,89.20
2018-03-04T00:51:04.012Z,92.97
2018-03-04T00:53:30.611Z,95.03
2018-03-04T00:55:57.211Z,94.87
2018-03-04T00:58:23.829Z,100.23
2018-03-04T01:00:50.432Z,92.17
2018-03-04T01:03:17.047Z,103.70
2018-03-04T01:05:43.655Z,100.77
2018-03-04T01:08:10.256Z,99.00
2018-03-04T01:10:36.859Z,98.27
2018-03-04T01:13:03.455Z,105.33
2018-03-04T01:15:30.067Z,96.93
2018-03-04T01:17:56.658Z,90.93
2018-03-04T01:20:23.272Z,96.40
2018-03-04T01:22:49.872Z,100.60
2018-03-04T01:25:16.475Z,91.40
2018-03-04T01:27:43.073Z,96.27
2018-03-04T01:30:09.689Z,104.90
2018-03-04T01:32:36.278Z,86.47
2018-03-04T01:35:02.892Z,100.47
2018-03-04T01:37:29.510Z,95.83
2018-03-04T01:39:56.128Z,104.77
2018-03-04T01:42:22.723Z,92.10
2018-03-04T01:44:49.324Z,98.50
2018-03-04T01:47:15.931Z,94.77
2018-03-04T01:49:42.543Z,97.57
2018-03-04T01:52:09.143Z,91.00
2018-03-04T01:54:35.743Z,95.87
2018-03-04T01:57:02.348Z,101.23
2018-03-04T01:59:28.947Z,100.13
2018-03-04T02:01:55.548Z,99.07
2018-03-04T02:04:22.150Z,105.50
2018-03-04T02:06:48.751Z,90.70
2018-03-04T02:09:15.355Z,93.83
2018-03-04T02:11:41.969Z,96.33
2018-03-04T02:14:08.562Z,91.03
2018-03-04T02:16:35.160Z,95.80
2018-03-04T02:19:01.767Z,101.97
2018-03-04T02:21:28.371Z,94.50
2018-03-04T02:23:55.003Z,108.57
2018-03-04T02:26:21.599Z,99.63
2018-03-04T02:28:48.248Z,90.97
2018-03-04T02:31:14.841Z,98.87
2018-03-04T02:33:41.437Z,95.63
2018-03-04T02:36:08.032Z,95.70
2018-03-04T02:38:34.638Z,83.77
2018-03-04T02:41:01.235Z,92.83
2018-03-04T02:43:27.843Z,94.07
2018-03-04T02:45:54.472Z,93.23
2018-03-04T02:48:21.116Z,100.33
2018-03-04T02:50:47.684Z,92.27
2018-03-04T02:53:14.279Z,93.13
2018-03-04T02:55:40.880Z,91.30
2018-03-04T02:58:07.483Z,98.07
2018-03-04T03:00:34.089Z,93.53
2018-03-04T03:03:00.691Z,91.57
2018-03-04T03:05:27.296Z,85.67
2018-03-04T03:07:53.896Z,88.67
2018-03-04T03:10:21.071Z,100.27
2018-03-04T03:12:47.663Z,93.70
2018-03-04T03:15:14.295Z,87.67
2018-03-04T03:17:40.891Z,90.20
2018-03-04T03:20:07.501Z,88.50
2018-03-04T03:22:34.092Z,93.13
2018-03-04T03:25:00.700Z,98.93
2018-03-04T03:27:27.298Z,91.23
2018-03-04T03:29:53.911Z,92.60
2018-03-04T03:32:20.516Z,89.17
2018-03-04T03:34:47.107Z,86.77
2018-03-04T03:37:13.730Z,88.00
2018-03-04T03:39:40.312Z,93.30
2018-03-04T03:42:06.916Z,80.57
2018-03-04T03:44:33.523Z,90.57
2018-03-04T03:47:00.108Z,89.20
2018-03-04T03:49:26.714Z,87.87
2018-03-04T03:51:53.321Z,87.00
2018-03-04T03:54:19.927Z,85.90
2018-03-04T03:56:46.552Z,94.33
2018-03-04T03:59:13.152Z,89.67
2018-03-04T04:01:39.759Z,87.07
2018-03-04T04:04:06.356Z,93.67
2018-03-04T04:06:32.951Z,79.70
2018-03-04T04:08:59.555Z,84.37
2018-03-04T04:11:26.146Z,91.33
2018-03-04T04:13:52.755Z,90.23
2018-03-04T04:16:19.355Z,86.20
2018-03-04T04:18:45.959Z,90.57
2018-03-04T04:21:12.555Z,84.60
2018-03-04T04:23:39.159Z,93.53
2018-03-04T04:26:05.751Z,88.57
2018-03-04T04:28:32.363Z,97.13
2018-03-04T04:30:58.956Z,93.57
2018-03-04T04:33:25.559Z,91.13
2018-03-04T04:35:52.160Z,86.57
2018-03-04T04:38:18.766Z,88.40
2018-03-04T04:40:45.367Z,87.77
2018-03-04T04:43:11.979Z,87.60
2018-03-04T04:45:38.568Z,90.43
2018-03-04T04:48:05.164Z,92.17
2018-03-04T04:50:31.772Z,94.93
2018-03-04T04:52:58.364Z,94.07
2018-03-04T04:55:24.969Z,91.17
2018-03-04T04:57:51.567Z,87.73
2018-03-04T05:00:18.169Z,97.30
2018-03-04T05:02:44.776Z,89.30
2018-03-04T05:05:11.375Z,98.20
2018-03-04T05:07:37.967Z,89.60
2018-03-04T05:10:04.571Z,94.43
2018-03-04T05:12:31.178Z,95.60
2018-03-04T05:14:57.774Z,92.50
2018-03-04T05:17:24.381Z,99.90
2018-03-04T05:19:50.991Z,85.43
2018-03-04T05:22:17.584Z,92.50
2018-03-04T05:24:44.179Z,97.03
2018-03-04T05:27:10.775Z,89.80
2018-03-04T05:29:37.371Z,93.87
2018-03-04T05:32:03.979Z,91.70
2018-03-04T05:34:30.599Z,91.90
2018-03-04T05:36:57.191Z,93.47
2018-03-04T05:39:23.792Z,102.43
2018-03-04T05:41:50.430Z,91.47
2018-03-04T05:44:17.024Z,98.00
2018-03-04T05:46:43.628Z,89.97
2018-03-04T05:49:10.231Z,101.27
2018-03-04T05:51:36.837Z,94.37
2018-03-04T05:54:03.436Z,103.40
2018-03-04T05:56:30.051Z,87.17
2018-03-04T05:58:56.648Z,95.50
2018-03-04T06:01:23.255Z,104.73
2018-03-04T06:03:49.871Z,99.43
2018-03-04T06:06:16.459Z,96.47
2018-03-04T06:08:43.066Z,93.93
2018-03-04T06:11:10.511Z,93.80
2018-03-04T06:13:37.107Z,87.60
2018-03-04T06:16:03.708Z,103.87
2018-03-04T06:18:30.319Z,103.53
2018-03-04T06:20:56.923Z,101.90
2018-03-04T06:23:23.543Z,94.33
2018-03-04T06:25:50.131Z,102.93
2018-03-04T06:28:16.740Z,98.03
2018-03-04T06:30:43.340Z,90.73
2018-03-04T06:33:09.971Z,97.57
2018-03-04T06:35:36.567Z,96.90
2018-03-04T06:38:03.174Z,90.50
2018-03-04T06:40:29.794Z,101.70
2018-03-04T06:42:56.387Z,95.33
2018-03-04T06:45:22.991Z,101.47
2018-03-04T06:47:49.588Z,88.70
2018-03-04T06:50:16.203Z,84.53
2018-03-04T06:52:42.795Z,85.80
2018-03-04T06:55:09.419Z,93.10
2018-03-04T06:57:36.021Z,88.00
2018-03-04T07:00:02.620Z,88.83
2018-03-04T07:02:29.220Z,91.97
2018-03-04T07:04:55.855Z,86.20
2018-03-04T07:07:22.451Z,87.00
2018-03-04T07:09:49.077Z,92.57
2018-03-04T07:12:15.679Z,83.63
2018-03-04T07:14:42.271Z,87.27
2018-03-04T07:17:08.907Z,96.17
2018-03-04T07:19:35.506Z,91.07
2018-03-04T07:22:02.120Z,88.47
2018-03-04T07:24:28.764Z,93.40
2018-03-04T07:26:55.314Z,87.33
2018-03-04T07:29:21.922Z,83.93
2018-03-04T07:31:48.520Z,88.33
2018-03-04T07:34:15.231Z,82.53
2018-03-04T07:36:41.836Z,82.33
2018-03-04T07:39:08.427Z,85.70
2018-03-04T07:41:35.031Z,79.87
2018-03-04T07:44:01.628Z,87.80
2018-03-04T07:46:28.240Z,78.37
2018-03-04T07:48:54.837Z,78.80
2018-03-04T07:51:21.427Z,82.33
2018-03-04T07:53:48.039Z,90.97
2018-03-04T07:56:14.658Z,77.50
2018-03-04T07:58:41.274Z,73.70
2018-03-04T08:01:07.872Z,85.60
2018-03-04T08:03:34.480Z,84.30
2018-03-04T08:06:01.083Z,73.93
2018-03-04T08:08:27.691Z,72.77
2018-03-04T08:10:54.291Z,84.63
2018-03-04T08:13:20.900Z,76.67
2018-03-04T08:15:47.511Z,71.30
2018-03-04T08:18:14.119Z,81.10
2018-03-04T08:20:40.711Z,80.57
2018-03-04T08:23:07.346Z,74.53
2018-03-04T08:25:35.732Z,76.27
2018-03-04T08:28:08.156Z,72.83
2018-03-04T08:30:34.779Z,76.27
2018-03-04T08:33:01.384Z,82.30
2018-03-04T08:35:27.987Z,80.37
2018-03-04T08:37:54.587Z,70.53
2018-03-04T08:40:21.362Z,75.50
2018-03-04T08:42:47.931Z,74.30
2018-03-04T08:45:14.584Z,84.33
2018-03-04T08:47:41.190Z,72.43
2018-03-04T08:50:07.806Z,78.27
2018-03-04T08:52:34.405Z,70.03
2018-03-04T08:55:01.016Z,68.77
2018-03-04T08:57:27.627Z,68.00
2018-03-04T08:59:54.233Z,68.40
2018-03-04T09:02:20.923Z,72.30
2018-03-04T09:04:47.684Z,79.33
2018-03-04T09:07:14.283Z,79.80
2018-03-04T09:09:40.884Z,63.37
2018-03-04T09:12:07.491Z,63.93
2018-03-04T09:14:34.100Z,66.63
2018-03-04T09:17:01.033Z,73.27
2018-03-04T09:19:27.625Z,69.63
2018-03-04T09:21:55.262Z,70.40
2018-03-04T09:24:21.930Z,66.43
2018-03-04T09:26:48.676Z,67.87
2018-03-04T09:29:15.279Z,65.20
2018-03-04T09:31:41.932Z,66.87
2018-03-04T09:34:08.527Z,63.23
2018-03-04T09:36:35.236Z,63.27
2018-03-04T09:41:34.844Z,59.70
2018-03-04T09:44:03.636Z,58.67
2018-03-04T09:46:30.551Z,62.20
2018-03-04T09:48:57.364Z,62.07
2018-03-04T09:51:23.956Z,59.97
2018-03-04T09:53:52.080Z,55.57
2018-03-04T09:56:18.675Z,52.70
2018-03-04T09:58:45.287Z,59.40
2018-03-04T10:01:11.883Z,55.30
2018-03-04T10:03:38.504Z,50.37
2018-03-04T10:06:05.120Z,54.00
2018-03-04T10:08:31.741Z,56.80
2018-03-04T10:10:58.341Z,53.90
2018-03-04T10:13:25.875Z,55.43
2018-03-04T10:15:52.473Z,54.47
2018-03-04T10:18:19.136Z,50.63
2018-03-04T10:20:45.746Z,46.43
2018-03-04T10:23:12.363Z,51.90
2018-03-04T10:25:38.977Z,48.83
2018-03-04T10:28:05.580Z,47.00
2018-03-04T10:30:32.185Z,47.63
2018-03-04T10:32:58.776Z,45.73
2018-03-04T10:35:25.379Z,47.90
2018-03-04T10:37:52.695Z,48.83
2018-03-04T10:40:19.297Z,42.83
2018-03-04T10:42:45.910Z,51.67
2018-03-04T10:45:12.515Z,50.47
2018-03-04T10:47:39.126Z,41.90
2018-03-04T10:50:05.729Z,44.50
2018-03-04T10:52:32.327Z,42.50
2018-03-04T10:54:58.936Z,41.23
2018-03-04T10:57:25.562Z,41.60
2018-03-04T10:59:52.335Z,41.53
2018-03-04T11:02:22.879Z,40.70
2018-03-04T11:04:49.463Z,45.10
2018-03-04T11:07:16.102Z,42.80
2018-03-04T11:09:43.192Z,45.20
2018-03-04T11:12:09.765Z,40.37
2018-03-04T11:14:36.351Z,42.03
2018-03-04T11:17:02.955Z,38.10
2018-03-04T11:19:29.547Z,40.70
2018-03-04T11:21:56.425Z,42.37
2018-03-04T11:24:23.025Z,41.13
2018-03-04T11:26:49.648Z,42.43
2018-03-04T11:29:16.271Z,46.37
2018-03-04T11:31:42.867Z,37.43
2018-03-04T11:34:09.467Z,41.27
2018-03-04T11:36:36.064Z,40.77
2018-03-04T11:39:02.663Z,35.80
2018-03-04T11:41:29.262Z,38.53
2018-03-04T11:43:55.871Z,42.23
2018-03-04T11:46:22.475Z,40.97
2018-03-04T11:48:49.097Z,39.33
2018-03-04T11:51:15.702Z,40.10
2018-03-04T11:53:42.307Z,37.67
2018-03-04T11:56:08.924Z,36.77
2018-03-04T11:58:35.604Z,42.20
2018-03-04T12:01:02.232Z,41.17
2018-03-04T12:03:28.826Z,33.73
2018-03-04T12:05:55.469Z,39.80
2018-03-04T12:08:22.027Z,35.60
2018-03-04T12:10:48.623Z,33.50
2018-03-04T12:13:15.248Z,33.40
2018-03-04T12:15:41.904Z,31.87
2018-03-04T12:18:08.495Z,32.63
2018-03-04T12:20:35.089Z,30.67
2018-03-04T12:23:01.697Z,34.13
2018-03-04T12:25:28.300Z,35.23
2018-03-04T12:27:54.904Z,31.93
2018-03-04T12:30:21.529Z,34.70
2018-03-04T12:32:48.132Z,32.80
2018-03-04T12:35:14.732Z,31.90
2018-03-04T12:37:41.340Z,30.67
2018-03-04T12:40:08.034Z,28.10
2018-03-04T12:42:34.650Z,27.77
2018-03-04T12:45:01.252Z,26.03
2018-03-04T12:47:27.887Z,29.40
2018-03-04T12:49:54.452Z,31.73
2018-03-04T12:52:21.053Z,29.20
2018-03-04T12:54:47.657Z,28.83
2018-03-04T12:57:14.592Z,29.20
2018-03-04T12:59:41.244Z,26.17
2018-03-04T13:02:07.850Z,32.50
2018-03-04T13:04:34.755Z,28.00
2018-03-04T13:07:01.343Z,29.67
2018-03-04T13:09:27.956Z,28.20
2018-03-04T13:11:54.569Z,24.43
2018-03-04T13:14:21.159Z,25.10
2018-03-04T13:16:47.778Z,25.40
2018-03-04T13:19:14.378Z,29.77
2018-03-04T13:21:40.974Z,29.60
2018-03-04T13:24:07.568Z,26.73
2018-03-04T13:26:34.179Z,29.03
2018-03-04T13:29:00.774Z,31.10
2018-03-04T13:31:27.380Z,32.07
2018-03-04T13:33:53.995Z,32.03
2018-03-04T13:36:20.594Z,35.60
2018-03-04T13:38:47.211Z,33.53
2018-03-04T13:41:13.808Z,29.90
2018-03-04T13:43:40.403Z,32.97
2018-03-04T13:46:07.003Z,28.40
2018-03-04T13:48:33.616Z,26.67
2018-03-04T13:51:00.212Z,32.20
2018-03-04T13:53:26.816Z,32.00
2018-03-04T13:55:53.412Z,30.17
2018-03-04T13:58:20.016Z,31.83
2018-03-04T14:00:46.608Z,32.23
2018-03-04T14:03:13.208Z,26.67
2018-03-04T14:05:39.814Z,29.73
2018-03-04T14:08:06.495Z,32.03
2018-03-04T14:10:33.089Z,30.57
2018-03-04T14:12:59.687Z,31.67
2018-03-04T14:15:26.297Z,31.37
2018-03-04T14:17:52.895Z,29.20
2018-03-04T14:20:19.564Z,29.40
2018-03-04T14:22:46.171Z,29.03
2018-03-04T14:25:12.783Z,27.43
2018-03-04T14:27:39.375Z,30.87
2018-03-04T14:30:05.980Z,31.60
2018-03-04T14:32:32.579Z,27.40
2018-03-04T14:34:59.179Z,26.80
2018-03-04T14:37:25.778Z,25.10
2018-03-04T14:39:52.379Z,25.63
2018-03-04T14:42:18.974Z,25.73
2018-03-04T14:44:45.615Z,25.83
2018-03-04T14:47:12.216Z,25.40
2018-03-04T14:49:38.811Z,24.00
2018-03-04T14:52:05.420Z,27.10
2018-03-04T14:54:32.138Z,27.53
2018-03-04T14:56:58.736Z,22.53
2018-03-04T14:59:25.333Z,22.30
2018-03-04T15:01:51.939Z,22.73
2018-03-04T15:04:18.539Z,20.67
2018-03-04T15:06:45.148Z,22.13
2018-03-04T15:09:11.750Z,21.37
2018-03-04T15:11:38.348Z,21.33
2018-03-04T15:14:04.952Z,29.53
2018-03-04T15:16:31.552Z,22.30
2018-03-04T15:18:58.152Z,22.03
2018-03-04T15:21:24.744Z,23.20
2018-03-04T15:23:51.347Z,23.87
2018-03-04T15:26:17.943Z,30.37
2018-03-04T15:28:44.543Z,26.30
2018-03-04T15:31:11.140Z,24.37
2018-03-04T15:33:37.738Z,26.70
2018-03-04T15:36:04.334Z,29.90
2018-03-04T15:38:30.934Z,25.67
2018-03-04T15:40:57.531Z,27.47
2018-03-04T15:43:24.168Z,26.47
2018-03-04T15:45:50.747Z,27.30
2018-03-04T15:48:17.352Z,30.80
2018-03-04T15:50:43.963Z,27.53
2018-03-04T15:53:10.567Z,31.70
2018-03-04T15:55:37.175Z,31.00
2018-03-04T15:58:03.772Z,30.60
2018-03-04T16:00:30.388Z,29.30
2018-03-04T16:02:56.983Z,28.73
2018-03-04T16:05:23.595Z,28.73
2018-03-04T16:07:50.191Z,29.10
2018-03-04T16:10:16.795Z,27.40
2018-03-04T16:12:43.395Z,29.80
2018-03-04T16:15:09.996Z,32.83
2018-03-04T16:17:36.589Z,28.80
2018-03-04T16:20:03.229Z,33.10
2018-03-04T16:22:29.823Z,30.00
2018-03-04T16:24:56.434Z,28.43
2018-03-04T16:27:23.030Z,28.60
2018-03-04T16:29:49.622Z,28.50
2018-03-04T16:32:16.231Z,26.20
2018-03-04T16:34:42.827Z,24.53
2018-03-04T16:37:09.445Z,25.30
2018-03-04T16:39:36.041Z,26.20
2018-03-04T16:42:02.645Z,28.23
2018-03-04T16:44:29.245Z,30.93
2018-03-04T16:46:55.852Z,27.87
2018-03-04T16:49:22.453Z,27.83
2018-03-04T16:51:49.956Z,28.20
2018-03-04T16:54:16.551Z,30.30
2018-03-04T16:56:43.155Z,35.57
2018-03-04T16:59:09.779Z,32.97
2018-03-04T17:01:36.371Z,30.20
2018-03-04T17:04:02.976Z,32.17
2018-03-04T17:06:29.572Z,35.37
2018-03-04T17:08:56.174Z,28.80
2018-03-04T17:11:22.771Z,30.10
2018-03-04T17:13:49.387Z,30.50
2018-03-04T17:16:16.019Z,28.10
2018-03-04T17:18:42.628Z,29.77
2018-03-04T17:21:09.220Z,33.90
2018-03-04T17:23:35.823Z,36.07
2018-03-04T17:26:02.418Z,30.93
2018-03-04T17:28:29.027Z,37.77
2018-03-04T17:30:55.628Z,36.03
2018-03-04T17:33:22.235Z,34.30
2018-03-04T17:35:48.840Z,37.70
2018-03-04T17:38:15.439Z,36.13
2018-03-04T17:40:42.043Z,39.07
2018-03-04T17:43:08.737Z,39.30
2018-03-04T17:45:35.339Z,43.33
2018-03-04T17:48:01.939Z,39.10
2018-03-04T17:50:28.547Z,39.97
2018-03-04T17:52:55.139Z,44.83
2018-03-04T17:55:21.748Z,43.80
2018-03-04T17:57:48.347Z,41.00
2018-03-04T18:00:14.971Z,40.93
2018-03-04T18:02:41.580Z,43.13
2018-03-04T18:05:08.179Z,44.67
2018-03-04T18:07:34.779Z,46.20
2018-03-04T18:10:01.464Z,44.87
2018-03-04T18:12:28.061Z,44.93
2018-03-04T18:14:54.655Z,50.10
2018-03-04T18:17:21.261Z,45.00
2018-03-04T18:19:47.855Z,48.07
2018-03-04T18:22:14.461Z,50.47
2018-03-04T18:24:41.067Z,51.00
2018-03-04T18:27:07.675Z,48.37
2018-03-04T18:29:34.275Z,51.10
2018-03-04T18:32:00.891Z,52.00
2018-03-04T18:34:27.488Z,47.40
2018-03-04T18:36:54.087Z,50.90
2018-03-04T18:39:20.687Z,50.10
2018-03-04T18:41:47.356Z,50.03
2018-03-04T18:44:13.949Z,55.60
2018-03-04T18:46:40.569Z,52.40
2018-03-04T18:49:07.169Z,47.37
2018-03-04T18:51:33.781Z,50.13
2018-03-04T18:54:00.374Z,54.50
2018-03-04T18:56:26.971Z,55.93
2018-03-04T18:58:53.585Z,55.40
2018-03-04T19:01:20.175Z,55.53
2018-03-04T19:03:46.783Z,55.87
2018-03-04T19:06:13.385Z,55.07
2018-03-04T19:08:39.987Z,52.03
2018-03-04T19:11:06.988Z,47.33
2018-03-04T19:13:33.693Z,55.57
2018-03-04T19:16:00.253Z,54.03
2018-03-04T19:18:27.163Z,53.03
2018-03-04T19:20:53.764Z,53.20
2018-03-04T19:23:20.364Z,55.77
2018-03-04T19:25:46.977Z,51.23
2018-03-04T19:28:13.567Z,52.80
2018-03-04T19:30:40.188Z,58.50
2018-03-04T19:33:06.777Z,55.77
2018-03-04T19:35:33.388Z,57.73
2018-03-04T19:37:59.980Z,61.10
2018-03-04T19:40:26.591Z,52.70
2018-03-04T19:42:53.191Z,61.53
2018-03-04T19:45:19.795Z,53.80
2018-03-04T19:47:46.401Z,59.67
2018-03-04T19:50:13.003Z,54.13
2018-03-04T19:52:39.620Z,56.73
2018-03-04T19:55:06.204Z,56.73
2018-03-04T19:57:32.807Z,57.27
2018-03-04T19:59:59.412Z,65.67
2018-03-04T20:02:26.028Z,54.47
2018-03-04T20:04:52.630Z,51.03
2018-03-04T20:07:19.242Z,57.00
2018-03-04T20:09:45.836Z,54.60
2018-03-04T20:12:12.455Z,57.83
2018-03-04T20:14:39.048Z,57.30
2018-03-04T20:17:05.664Z,55.50
2018-03-04T20:19:32.266Z,56.20
2018-03-04T20:21:58.874Z,54.50
2018-03-04T20:24:25.472Z,54.60
2018-03-04T20:26:52.079Z,56.43
2018-03-04T20:29:18.676Z,51.03
2018-03-04T20:31:46.300Z,51.53
2018-03-04T20:34:12.904Z,52.90
2018-03-04T20:36:39.509Z,53.20
2018-03-04T20:39:06.112Z,48.23
2018-03-04T20:41:32.703Z,54.20
2018-03-04T20:43:59.304Z,51.60
2018-03-04T20:46:25.899Z,52.23
2018-03-04T20:48:52.505Z,50.30
2018-03-04T20:51:19.105Z,50.33
2018-03-04T20:53:45.711Z,55.40
2018-03-04T20:56:12.313Z,50.20
2018-03-04T20:58:38.919Z,52.97
2018-03-04T21:01:05.523Z,47.13
2018-03-04T21:03:32.135Z,53.27
2018-03-04T21:05:58.732Z,52.67
2018-03-04T21:08:25.332Z,50.10
2018-03-04T21:10:51.945Z,50.50
2018-03-04T21:13:18.663Z,45.90
2018-03-04T21:15:45.270Z,50.83
2018-03-04T21:18:11.869Z,50.50
2018-03-04T21:20:38.471Z,49.97
2018-03-04T21:23:05.068Z,52.33
2018-03-04T21:25:31.671Z,52.07
2018-03-04T21:27:58.299Z,43.33
2018-03-04T21:30:24.891Z,44.40
2018-03-04T21:32:51.493Z,43.87
2018-03-04T21:35:18.095Z,42.73
2018-03-04T21:37:44.700Z,41.67
2018-03-04T21:40:11.312Z,40.30
2018-03-04T21:42:37.907Z,42.57
2018-03-04T21:45:04.504Z,40.20
2018-03-04T21:47:31.154Z,39.67
2018-03-04T21:49:57.739Z,37.30
2018-03-04T21:52:24.336Z,38.37
2018-03-04T21:54:50.932Z,35.53
2018-03-04T21:57:17.536Z,34.47
2018-03-04T21:59:44.134Z,33.53
2018-03-04T22:02:10.740Z,32.20
2018-03-04T22:04:37.344Z,35.80
2018-03-04T22:07:03.949Z,29.90
2018-03-04T22:09:30.552Z,32.37
2018-03-04T22:11:57.159Z,30.10
2018-03-04T22:14:23.759Z,29.57
2018-03-04T22:16:50.370Z,30.83
2018-03-04T22:19:16.955Z,28.93
2018-03-04T22:21:43.592Z,27.70
2018-03-04T22:24:10.195Z,29.23
2018-03-04T22:26:36.791Z,26.83
2018-03-04T22:29:03.396Z,26.57
2018-03-04T22:31:29.991Z,24.77
2018-03-04T22:33:56.595Z,25.77
2018-03-04T22:36:23.192Z,20.80
2018-03-04T22:38:49.802Z,21.87
2018-03-04T22:41:16.404Z,25.37
2018-03-04T22:43:43.007Z,22.07
2018-03-04T22:46:09.603Z,22.70
2018-03-04T22:48:36.207Z,19.07
2018-03-04T22:51:02.808Z,21.27
2018-03-04T22:53:29.424Z,22.80
2018-03-04T22:55:56.032Z,17.73
2018-03-04T22:58:22.623Z,20.23
2018-03-04T23:00:49.223Z,13.17
2018-03-04T23:03:15.810Z,9.17
2018-03-04T23:05:42.411Z,10.30
2018-03-04T23:08:09.008Z,10.20
2018-03-04T23:10:35.603Z,7.70
2018-03-04T23:13:02.224Z,7.13
2018-03-04T23:15:28.819Z,6.37
2018-03-04T23:17:55.405Z,7.30
2018-03-04T23:20:21.994Z,5.33
2018-03-04T23:22:48.598Z,5.10
2018-03-04T23:25:15.188Z,6.27
2018-03-04T23:27:41.783Z,5.63
2018-03-04T23:30:08.380Z,6.43
2018-03-04T23:32:34.968Z,5.00
2018-03-04T23:35:01.560Z,6.43
2018-03-04T23:37:28.151Z,4.77
2018-03-04T23:39:54.738Z,6.00
2018-03-04T23:42:21.327Z,4.23
2018-03-04T23:44:47.922Z,4.13
2018-03-04T23:47:14.507Z,4.03
2018-03-04T23:49:41.101Z,3.70
2018-03-04T23:52:07.843Z,3.40
2018-03-04T23:54:34.431Z,3.83
2018-03-04T23:57:01.027Z,3.70
2018-03-04T23:59:27.615Z,3.73
